Time;durP1;ratioP1;P1;durP2;ratioP2;P2;SDS_P1;SDS_P2;PMS_P1;PMS_P2;Temp;Humidity;BMP_temperature;BMP_pressure;BME280_temperature;BME280_humidity;BME280_pressure;Samples;Min_cycle;Max_cycle;Signal;HPM_P1;HPM_P2
2022/08/17 00:00:46;;;;;;;3.92;3.53;;;19.20;96.20;;;19.11;78.04;96641.72;5012426;28;20033;-47
2022/08/17 00:03:20;;;;;;;4.00;3.60;;;19.10;96.10;;;19.05;78.71;96634.22;5012904;28;20033;-48
2022/08/17 00:05:58;;;;;;;5.20;4.00;;;19.10;96.40;;;18.99;79.26;96626.72;5010794;28;20065;-46
2022/08/17 00:08:29;;;;;;;5.00;4.22;;;19.00;96.60;;;18.96;80.07;96635.00;5011279;28;20753;-45
2022/08/17 00:10:57;;;;;;;5.95;4.22;;;18.90;96.90;;;18.92;80.31;96636.22;5011758;28;20048;-47
2022/08/17 00:13:32;;;;;;;5.28;4.15;;;18.90;97.10;;;18.90;80.46;96633.69;5010525;28;20448;-46
2022/08/17 00:16:03;;;;;;;5.35;3.85;;;18.90;97.20;;;18.84;81.14;96623.47;5011467;28;20030;-48
2022/08/17 00:18:31;;;;;;;4.32;3.88;;;18.90;97.50;;;18.78;82.12;96623.97;5010572;28;20033;-47
2022/08/17 00:20:59;;;;;;;5.07;4.00;;;18.80;97.90;;;18.71;82.53;96623.63;5012264;28;20125;-47
2022/08/17 00:23:26;;;;;;;5.43;4.10;;;18.80;98.10;;;18.67;83.37;96619.50;4993507;28;20025;-46
2022/08/17 00:25:52;;;;;;;5.40;3.80;;;18.70;98.40;;;18.61;83.75;96612.84;5007226;28;20041;-46
2022/08/17 00:28:19;;;;;;;5.90;3.95;;;18.70;98.60;;;18.57;84.40;96613.22;5009648;28;20414;-49
2022/08/17 00:30:47;;;;;;;5.50;3.72;;;18.60;98.90;;;18.54;84.93;96617.00;5011093;28;20044;-47
2022/08/17 00:33:23;;;;;;;4.88;3.92;;;18.60;99.10;;;18.50;85.15;96616.41;5010518;28;20029;-47
2022/08/17 00:35:50;;;;;;;5.63;4.35;;;18.50;99.30;;;18.45;85.33;96602.56;4993561;28;20044;-47
2022/08/17 00:38:16;;;;;;;6.20;4.20;;;18.60;99.50;;;18.44;85.66;96598.19;5010473;28;20037;-46
2022/08/17 00:40:49;;;;;;;5.95;4.53;;;18.50;99.70;;;18.42;85.72;96601.97;5011424;28;20069;-48
2022/08/17 00:43:42;;;;;;;5.88;3.88;;;18.50;99.80;;;18.24;85.83;96582.97;5014716;28;20028;-46
2022/08/17 00:46:17;;;;;;;6.68;4.10;;;18.40;99.90;;;18.35;86.22;96609.63;5016707;28;20065;-46
2022/08/17 00:48:44;;;;;;;6.03;4.57;;;18.40;99.90;;;18.31;86.68;96602.84;5014823;28;20049;-47
2022/08/17 00:51:22;;;;;;;4.53;3.92;;;18.40;99.90;;;18.28;86.49;96611.09;5015849;28;20041;-47
2022/08/17 00:53:54;;;;;;;6.40;4.20;;;18.40;99.90;;;18.28;86.00;96611.94;4998449;28;20049;-48
2022/08/17 00:56:31;;;;;;;4.93;3.83;;;18.40;99.90;;;18.23;86.34;96598.16;5001382;28;20112;-47
2022/08/17 00:58:57;;;;;;;6.10;4.45;;;18.30;99.90;;;18.24;87.25;96609.66;4998607;28;20374;-47
2022/08/17 01:01:23;;;;;;;6.18;4.05;;;18.30;99.90;;;18.18;87.67;96604.78;5010606;28;20025;-47
2022/08/17 01:03:53;;;;;;;6.70;4.72;;;18.20;99.90;;;18.15;87.93;96611.25;5013663;28;20058;-48
2022/08/17 01:06:22;;;;;;;6.07;4.70;;;18.20;99.90;;;18.06;88.18;96593.31;4998334;28;20327;-48
2022/08/17 01:08:50;;;;;;;7.60;4.80;;;18.20;99.90;;;18.05;88.75;96597.81;5012763;28;20037;-47
2022/08/17 01:11:17;;;;;;;6.15;4.65;;;18.10;99.90;;;17.99;89.59;96592.09;4999561;28;20120;-47
2022/08/17 01:13:44;;;;;;;6.18;4.40;;;18.10;99.90;;;17.99;89.45;96602.78;5015097;28;20049;-47
2022/08/17 01:16:23;;;;;;;5.93;4.28;;;18.10;99.90;;;17.94;88.97;96592.44;5016896;28;20930;-48
2022/08/17 01:18:54;;;;;;;4.68;3.95;;;18.10;99.90;;;17.94;89.46;96603.13;4998581;28;20085;-48
2022/08/17 01:21:43;;;;;;;5.20;4.20;;;18.00;99.90;;;17.89;89.88;96595.50;4999437;28;20507;-48
2022/08/17 01:24:09;;;;;;;5.43;4.30;;;18.00;99.90;;;17.83;90.19;96592.44;5010307;28;20451;-44
2022/08/17 01:26:36;;;;;;;5.82;4.18;;;17.90;99.90;;;17.83;89.46;96600.44;5015004;28;20034;-45
2022/08/17 01:29:05;;;;;;;7.13;4.25;;;17.90;99.90;;;17.81;89.83;96599.72;5001300;28;20045;-45
2022/08/17 01:31:37;;;;;;;7.55;4.60;;;17.90;99.90;;;17.82;89.55;96604.06;5012354;28;20041;-45
2022/08/17 01:34:09;;;;;;;4.68;4.03;;;17.80;99.90;;;17.80;89.56;96606.88;5013098;28;20038;-47
2022/08/17 01:36:38;;;;;;;7.28;4.55;;;17.90;99.90;;;17.75;90.05;96609.03;4996401;28;20457;-47
2022/08/17 01:39:17;;;;;;;5.13;4.38;;;17.80;99.90;;;17.71;90.36;96603.09;5015386;28;20033;-47
2022/08/17 01:41:44;;;;;;;5.22;4.05;;;17.80;99.90;;;17.68;90.91;96598.00;5014181;28;20021;-46
2022/08/17 01:44:11;;;;;;;6.72;4.78;;;17.70;99.90;;;17.63;91.38;96605.50;4998312;28;20029;-45
2022/08/17 01:46:37;;;;;;;5.55;4.03;;;17.70;99.90;;;17.61;91.19;96609.28;5005250;22;20514;-58
2022/08/17 01:49:11;;;;;;;7.15;4.70;;;17.70;99.90;;;17.59;91.14;96603.22;4995042;28;20061;-59
2022/08/17 01:51:37;;;;;;;5.80;4.57;;;17.70;99.90;;;17.61;91.06;96602.13;4992481;28;20441;-59
2022/08/17 01:54:08;;;;;;;5.43;4.30;;;17.70;99.90;;;17.56;91.44;96606.97;4974508;28;20112;-59
2022/08/17 01:56:37;;;;;;;6.85;4.60;;;17.70;99.90;;;17.55;91.70;96607.94;4993205;28;20042;-59
2022/08/17 01:59:04;;;;;;;5.47;4.68;;;17.60;99.90;;;17.51;92.00;96607.31;4975704;28;20144;-59
2022/08/17 02:01:33;;;;;;;5.55;4.10;;;17.60;99.90;;;17.48;92.00;96609.34;4993112;28;20344;-59
2022/08/17 02:03:59;;;;;;;5.03;4.13;;;17.60;99.90;;;17.48;92.08;96614.69;4993274;28;20054;-59
2022/08/17 02:06:24;;;;;;;6.32;4.28;;;17.50;99.90;;;17.46;91.81;96612.16;4994810;28;20095;-59
2022/08/17 02:08:50;;;;;;;6.80;4.60;;;17.50;99.90;;;17.48;91.44;96612.03;4992469;28;20022;-59
2022/08/17 02:11:37;;;;;;;5.57;4.35;;;17.50;99.90;;;17.47;90.69;96611.19;4991771;28;20031;-59
2022/08/17 02:14:07;;;;;;;4.93;4.18;;;17.60;99.90;;;17.50;90.43;96618.09;4990922;28;20499;-59
2022/08/17 02:16:39;;;;;;;8.35;4.88;;;17.60;99.90;;;17.51;90.46;96609.13;4993421;28;20073;-59
2022/08/17 02:19:12;;;;;;;5.13;4.10;;;17.60;99.90;;;17.51;90.61;96615.28;4992009;28;20544;-59
2022/08/17 02:21:40;;;;;;;4.95;3.97;;;17.60;99.90;;;17.55;90.72;96615.94;4990209;28;20046;-59
2022/08/17 02:24:10;;;;;;;4.50;3.83;;;17.60;99.90;;;17.59;90.50;96617.38;4989824;28;20100;-59
2022/08/17 02:26:36;;;;;;;4.80;3.33;;;17.70;99.90;;;17.64;89.62;96612.56;4971664;28;20025;-59
2022/08/17 02:29:02;;;;;;;4.43;3.25;;;17.70;99.90;;;17.70;88.78;96613.88;4990390;28;20038;-59
2022/08/17 02:31:29;;;;;;;6.47;4.03;;;17.80;99.90;;;17.75;88.14;96612.56;4989918;28;20033;-59
2022/08/17 02:33:56;;;;;;;3.75;3.38;;;17.80;99.90;;;17.78;87.22;96615.94;4991884;28;20393;-59
2022/08/17 02:36:21;;;;;;;5.20;3.42;;;17.80;99.90;;;17.80;87.09;96608.66;4992877;28;20039;-59
2022/08/17 02:38:47;;;;;;;4.40;3.47;;;17.90;99.90;;;17.78;87.05;96603.44;4991616;28;20048;-59
2022/08/17 02:41:13;;;;;;;4.07;3.33;;;17.90;99.90;;;17.77;87.18;96608.94;4992619;28;20073;-58
2022/08/17 02:43:38;;;;;;;3.97;3.10;;;17.90;99.90;;;17.78;86.85;96606.13;4990874;28;20190;-58
2022/08/17 02:46:04;;;;;;;3.40;3.08;;;17.90;99.90;;;17.81;86.80;96611.22;4994201;28;20030;-58
2022/08/17 02:48:30;;;;;;;3.92;2.97;;;17.90;99.90;;;17.88;86.10;96614.28;4992338;28;20033;-58
2022/08/17 02:50:56;;;;;;;4.40;3.60;;;18.00;99.90;;;17.97;85.20;96608.22;4995227;28;20069;-58
2022/08/17 02:53:21;;;;;;;3.75;3.00;;;18.00;99.90;;;18.02;85.12;96611.38;4995721;28;20473;-59
2022/08/17 02:55:47;;;;;;;3.60;3.17;;;18.10;99.90;;;18.03;84.88;96612.22;4994793;28;20111;-58
2022/08/17 02:58:13;;;;;;;3.92;3.03;;;18.10;99.90;;;18.02;85.01;96611.38;4994311;28;20117;-59
2022/08/17 03:00:47;;;;;;;5.57;3.50;;;18.10;99.90;;;18.03;84.71;96613.06;4991759;28;20031;-58
2022/08/17 03:03:17;;;;;;;5.63;3.22;;;18.10;99.90;;;18.00;84.55;96607.97;4993721;28;20035;-59
2022/08/17 03:05:50;;;;;;;3.70;3.25;;;18.10;99.90;;;17.98;85.04;96606.41;4990731;28;20551;-59
2022/08/17 03:08:16;;;;;;;;;;;18.10;99.90;;;17.93;85.36;96602.28;4994642;28;20041;-59
2022/08/17 03:10:43;;;;;;;4.13;3.45;;;18.00;99.90;;;17.92;85.81;96615.72;4993090;28;19917;-59
2022/08/17 03:13:12;;;;;;;3.80;3.40;;;18.00;99.90;;;17.88;86.37;96614.28;4971247;28;20036;-58
2022/08/17 03:15:39;;;;;;;4.50;3.22;;;18.00;99.90;;;17.87;86.36;96612.56;4982892;28;20030;-58
2022/08/17 03:18:05;;;;;;;7.30;3.60;;;18.00;99.90;;;17.88;86.61;96616.97;4992053;28;20378;-58
2022/08/17 03:20:32;;;;;;;5.28;3.72;;;18.00;99.90;;;17.91;86.74;96614.06;4985727;28;20022;-58
2022/08/17 03:22:59;;;;;;;4.53;3.38;;;18.00;99.90;;;17.90;86.97;96613.19;4967971;28;20565;-59
2022/08/17 03:25:31;;;;;;;4.65;3.67;;;18.00;99.90;;;17.93;87.17;96609.44;4989729;28;20033;-58
2022/08/17 03:27:57;;;;;;;5.68;3.88;;;18.00;99.90;;;17.97;87.42;96621.56;4990059;28;20065;-58
2022/08/17 03:30:25;;;;;;;4.68;3.78;;;18.10;99.90;;;17.99;87.35;96624.94;4988016;28;20064;-58
2022/08/17 03:32:55;;;;;;;7.97;4.57;;;18.10;99.90;;;18.01;87.38;96638.16;4991749;28;20042;-59
2022/08/17 03:35:25;;;;;;;5.65;4.35;;;18.10;99.90;;;18.00;87.57;96639.13;4990431;28;20042;-58
2022/08/17 03:37:53;;;;;;;5.00;4.50;;;18.10;99.90;;;17.99;87.56;96643.63;4988920;28;20030;-58
2022/08/17 03:40:19;;;;;;;6.18;3.88;;;18.10;99.90;;;17.97;87.37;96640.22;4991067;28;20029;-58
2022/08/17 03:42:46;;;;;;;5.13;4.03;;;18.10;99.90;;;17.95;87.42;96636.84;4990258;28;20120;-58
2022/08/17 03:56:40;;;;;;;4.55;3.47;;;18.10;99.90;;;17.95;86.98;96642.19;4989539;28;20037;-58
2022/08/17 03:56:42;;;;;;;4.40;3.03;;;18.00;99.90;;;17.89;85.76;96640.84;4987501;28;20429;-59
2022/08/17 03:59:15;;;;;;;3.50;2.78;;;18.00;99.90;;;17.86;85.71;96646.41;4993020;28;20457;-59
2022/08/17 04:01:47;;;;;;;3.75;2.90;;;18.00;99.90;;;17.78;85.34;96647.94;4989240;28;20150;-58
2022/08/17 04:04:13;;;;;;;3.53;2.80;;;17.90;99.90;;;17.74;85.48;96644.66;4974627;28;20080;-58
2022/08/17 04:06:41;;;;;;;4.03;3.25;;;17.90;99.90;;;17.74;85.86;96652.66;4988756;28;20034;-58
2022/08/17 04:09:07;;;;;;;4.38;2.83;;;17.80;99.90;;;17.69;86.08;96655.72;4991892;28;20034;-58
2022/08/17 04:11:35;;;;;;;4.75;3.00;;;17.80;99.90;;;17.64;86.32;96652.53;4989181;28;20033;-58
2022/08/17 04:14:01;;;;;;;4.22;3.33;;;17.80;99.90;;;17.60;86.32;96651.06;4987037;28;20042;-59
2022/08/17 04:16:28;;;;;;;3.28;2.70;;;17.70;99.90;;;17.58;86.68;96658.34;4968491;28;20416;-59
2022/08/17 04:18:53;;;;;;;3.83;2.78;;;17.70;99.90;;;17.56;86.67;96652.28;4987912;28;20038;-58
2022/08/17 04:21:20;;;;;;;3.28;2.67;;;17.60;99.90;;;17.53;86.43;96650.72;4989734;28;20022;-58
2022/08/17 04:23:45;;;;;;;4.70;2.95;;;17.60;99.90;;;17.53;86.70;96665.84;4987261;28;20034;-58
2022/08/17 04:26:13;;;;;;;4.63;3.38;;;17.60;99.90;;;17.51;87.06;96673.09;4989527;28;20034;-58
2022/08/17 04:28:40;;;;;;;4.30;2.90;;;17.60;99.90;;;17.49;87.42;96672.38;4988442;28;20453;-58
2022/08/17 04:31:10;;;;;;;3.28;2.97;;;17.60;99.90;;;17.50;87.64;96676.75;4990162;28;20042;-58
2022/08/17 04:33:36;;;;;;;4.80;3.35;;;17.60;99.90;;;17.46;87.66;96680.59;4990268;28;20045;-58
2022/08/17 04:36:06;;;;;;;3.67;3.25;;;17.60;99.90;;;17.50;87.98;96680.25;4989101;28;20041;-58
2022/08/17 04:38:35;;;;;;;5.43;3.60;;;17.60;99.90;;;17.51;87.79;96687.28;4987576;28;20489;-58
2022/08/17 04:43:53;;;;;;;3.72;3.28;;;17.60;99.90;;;17.49;87.98;96678.53;4989103;28;20042;-58
2022/08/17 04:46:30;;;;;;;4.32;3.08;;;17.60;99.90;;;17.52;87.34;96685.47;4989039;28;20120;-58
2022/08/17 04:48:56;;;;;;;3.97;3.50;;;17.60;99.90;;;17.55;87.11;96699.41;4989149;28;20402;-58
2022/08/17 04:51:47;;;;;;;3.25;2.90;;;17.60;99.90;;;17.60;87.66;96703.53;4991832;28;20108;-58
2022/08/17 04:54:17;;;;;;;4.88;3.30;;;17.70;99.90;;;17.66;87.32;96701.25;4993464;28;20049;-58
2022/08/17 04:56:43;;;;;;;3.63;3.10;;;17.80;99.90;;;17.73;86.69;96710.50;4967510;28;20038;-58
2022/08/17 04:59:15;;;;;;;3.95;2.97;;;17.80;99.90;;;17.80;85.77;96705.53;4993236;28;20028;-58
2022/08/17 05:01:44;;;;;;;4.38;3.30;;;17.90;99.90;;;17.88;85.86;96697.81;4987768;28;20030;-58
2022/08/17 05:04:16;;;;;;;4.55;2.83;;;18.00;99.90;;;17.98;85.66;96705.97;4967379;28;20039;-58
2022/08/17 05:06:42;;;;;;;;;;;18.10;99.90;;;18.06;85.71;96703.53;4985306;28;20093;-58
2022/08/17 05:09:07;;;;;;;4.60;3.13;;;18.20;99.90;;;18.14;85.28;96700.25;4988561;28;20372;-58
2022/08/17 05:11:34;;;;;;;4.65;3.50;;;18.20;99.90;;;18.26;85.07;96707.28;4987829;28;20545;-58
2022/08/17 05:14:00;;;;;;;3.75;3.38;;;18.30;99.90;;;18.35;84.79;96697.72;4989042;28;20207;-58
2022/08/17 05:16:27;;;;;;;5.13;3.22;;;18.40;99.90;;;18.43;84.87;96705.09;4986583;28;20039;-58
2022/08/17 05:18:54;;;;;;;5.75;3.30;;;18.50;99.90;;;18.56;84.35;96705.00;4988830;28;20152;-58
2022/08/17 05:21:22;;;;;;;5.40;3.70;;;18.60;99.90;;;18.63;84.29;96704.38;4987387;28;20033;-58
2022/08/17 05:23:48;;;;;;;5.65;4.00;;;18.70;99.90;;;18.69;84.26;96700.34;4990467;28;20096;-58
2022/08/17 05:26:18;;;;;;;3.72;3.33;;;18.80;99.90;;;18.69;82.58;96705.69;4990307;28;20027;-58
2022/08/17 05:28:44;;;;;;;6.53;3.70;;;18.80;99.90;;;18.66;81.57;96698.78;4988572;28;20037;-58
2022/08/17 05:31:10;;;;;;;5.03;3.90;;;18.70;99.90;;;18.66;81.24;96709.47;4992731;28;20026;-58
2022/08/17 05:33:38;;;;;;;5.22;3.28;;;18.80;99.90;;;18.72;81.15;96705.44;4991888;28;20053;-58
2022/08/17 05:36:08;;;;;;;4.88;3.85;;;18.80;99.90;;;18.81;81.48;96714.53;4992911;28;20085;-58
2022/08/17 05:38:33;;;;;;;5.78;3.60;;;18.90;99.90;;;18.92;80.40;96716.38;4993605;28;20108;-58
2022/08/17 05:41:05;;;;;;;6.95;3.60;;;19.00;99.90;;;19.02;79.39;96706.59;4991873;28;20520;-58
2022/08/17 05:43:36;;;;;;;3.60;3.22;;;19.10;99.90;;;19.12;78.58;96707.56;4988559;28;20482;-58
2022/08/17 05:46:28;;;;;;;5.00;3.67;;;19.20;99.90;;;19.27;78.16;96708.09;4992979;28;20121;-58
2022/08/17 05:49:04;;;;;;;4.32;3.35;;;19.40;99.90;;;19.40;77.52;96707.94;4977541;28;20176;-58
2022/08/17 05:51:46;;;;;;;5.13;2.75;;;19.50;99.90;;;19.57;77.29;96711.88;4977342;28;20030;-58
2022/08/17 05:54:33;;;;;;;4.22;3.10;;;19.60;99.90;;;19.74;77.50;96713.13;4997224;28;20068;-58
2022/08/17 05:57:10;;;;;;;5.50;3.30;;;19.80;99.90;;;19.98;76.81;96715.56;4976121;28;20065;-58
2022/08/17 06:00:24;;;;;;;4.28;3.35;;;20.00;99.90;;;20.19;75.04;96718.22;4992791;28;20034;-58
2022/08/17 06:03:28;;;;;;;3.55;3.25;;;20.30;99.90;;;20.50;73.09;96716.38;4977720;28;20045;-58
2022/08/17 06:06:19;;;;;;;6.60;3.10;;;20.50;99.90;;;20.68;71.84;96719.28;4993525;28;20034;-58
2022/08/17 06:09:27;;;;;;;3.40;2.90;;;20.70;99.90;;;20.83;70.48;96732.28;4973001;28;20062;-58
2022/08/17 06:12:18;;;;;;;4.05;2.85;;;20.90;99.80;;;20.91;70.03;96744.03;4974156;28;20027;-58
2022/08/17 06:15:10;;;;;;;4.47;3.05;;;21.00;99.50;;;20.91;71.10;96749.38;4975977;28;20393;-58
2022/08/17 06:17:37;;;;;;;5.27;4.03;;;21.00;99.70;;;20.89;72.23;96748.69;4976514;28;20034;-58
2022/08/17 06:20:09;;;;;;;6.65;4.90;;;20.90;99.90;;;20.88;72.75;96752.34;4977340;28;20915;-58
2022/08/17 06:22:41;;;;;;;7.18;4.45;;;20.90;99.90;;;20.88;73.46;96756.84;4977375;28;20117;-58
2022/08/17 06:25:12;;;;;;;6.20;4.83;;;20.90;99.90;;;20.89;73.22;96756.72;4974599;28;20031;-58
2022/08/17 06:27:44;;;;;;;8.70;6.22;;;20.90;99.90;;;20.94;73.17;96758.97;4974927;28;20038;-58
2022/08/17 06:30:30;;;;;;;10.65;5.82;;;21.00;99.90;;;21.05;72.57;96760.69;4994305;28;20105;-58
2022/08/17 06:33:17;;;;;;;6.28;4.63;;;21.20;99.90;;;21.22;71.93;96748.47;4994500;28;20031;-58
2022/08/17 06:36:06;;;;;;;7.38;4.95;;;21.30;99.80;;;21.37;70.88;96755.09;4975829;28;20510;-58
2022/08/17 06:38:53;;;;;;;8.20;4.88;;;21.50;99.50;;;21.46;70.42;96767.72;4994832;28;20030;-58
2022/08/17 06:41:38;;;;;;;7.07;4.50;;;21.50;99.30;;;21.55;69.77;96768.69;4995415;28;20120;-58
2022/08/17 06:44:19;;;;;;;7.85;5.53;;;21.60;99.10;;;21.59;69.08;96780.00;4976301;28;20018;-58
2022/08/17 06:46:56;;;;;;;5.40;4.68;;;21.70;98.90;;;21.79;68.64;96792.44;4975347;28;20030;-58
2022/08/17 06:49:32;;;;;;;7.28;5.13;;;21.80;98.70;;;22.02;67.06;96793.00;4977290;28;20039;-58
2022/08/17 06:52:13;;;;;;;7.88;5.13;;;22.00;98.20;;;22.23;66.02;96768.63;4977751;28;20031;-58
2022/08/17 06:55:00;;;;;;;12.00;5.57;;;22.30;97.80;;;22.74;63.90;96779.13;4992507;28;20462;-58
2022/08/17 06:57:34;;;;;;;6.88;5.05;;;22.70;97.20;;;23.05;62.53;96767.13;4992736;28;20482;-58
2022/08/17 07:00:18;;;;;;;7.57;5.07;;;23.00;96.60;;;23.34;60.19;96760.72;4994966;28;20022;-58
2022/08/17 07:03:07;;;;;;;7.43;5.35;;;23.40;95.70;;;23.77;58.87;96753.72;4976407;28;20017;-58
2022/08/17 07:05:41;;;;;;;8.80;5.43;;;23.80;95.10;;;24.07;56.04;96742.72;4990003;28;20080;-58
2022/08/17 07:08:33;;;;;;;6.93;4.78;;;24.10;93.80;;;24.39;55.50;96756.41;4977103;28;20103;-58
2022/08/17 07:11:47;;;;;;;11.93;4.97;;;24.40;93.40;;;24.46;55.06;96753.94;4975460;28;20034;-58
2022/08/17 07:14:36;;;;;;;7.53;5.10;;;24.50;92.90;;;24.51;54.20;96748.88;4995067;28;20034;-58
2022/08/17 07:17:12;;;;;;;5.32;4.57;;;24.50;92.50;;;24.47;54.96;96752.06;4991742;28;20038;-58
2022/08/17 07:19:41;;;;;;;5.25;4.30;;;24.50;92.40;;;24.53;54.61;96752.31;4975742;28;20164;-58
2022/08/17 07:22:31;;;;;;;6.43;4.40;;;24.60;92.40;;;24.58;54.19;96750.00;4976031;28;20535;-58
2022/08/17 07:25:01;;;;;;;6.28;4.50;;;24.60;92.20;;;24.73;53.35;96741.31;4973380;28;20034;-58
2022/08/17 07:27:44;;;;;;;8.40;5.22;;;24.80;91.90;;;24.89;52.71;96746.75;4993884;28;20109;-58
2022/08/17 07:30:19;;;;;;;7.05;4.85;;;24.90;91.50;;;24.93;50.55;96748.13;4994507;28;20076;-58
2022/08/17 07:32:52;;;;;;;8.75;5.40;;;25.10;90.50;;;25.08;50.09;96760.97;4975243;28;20017;-59
2022/08/17 07:35:36;;;;;;;7.65;4.43;;;25.10;89.60;;;25.29;50.18;96761.41;4992209;28;20245;-59
2022/08/17 07:38:16;;;;;;;7.82;5.70;;;25.30;89.60;;;25.23;48.92;96758.50;4994080;28;20117;-59
2022/08/17 07:40:56;;;;;;;9.20;5.40;;;25.40;87.80;;;25.23;49.75;96758.50;4992641;28;20225;-58
2022/08/17 07:43:25;;;;;;;5.32;4.72;;;25.40;87.80;;;25.25;48.75;96760.06;4993819;28;20073;-59
2022/08/17 07:48:38;;;;;;;6.13;4.03;;;25.20;87.90;;;25.44;49.62;96768.88;5040685;28;20068;-45
2022/08/17 07:51:24;;;;;;;5.22;4.03;;;25.40;88.10;;;25.58;48.97;96765.53;5040504;28;20025;-48
2022/08/17 07:53:54;;;;;;;7.25;4.35;;;25.60;87.70;;;25.63;48.69;96773.97;5040998;28;20033;-46
2022/08/17 07:56:39;;;;;;;7.45;4.90;;;25.60;86.40;;;25.50;48.08;96774.47;5039730;28;20067;-48
2022/08/17 07:59:09;;;;;;;7.45;4.65;;;25.50;85.20;;;25.28;48.59;96777.75;5015719;28;20520;-49
2022/08/17 08:01:36;;;;;;;5.05;4.38;;;25.30;85.40;;;25.17;49.40;96780.75;5029619;28;20156;-47
2022/08/17 08:04:17;;;;;;;7.40;4.00;;;25.20;86.40;;;25.10;50.03;96786.78;5031534;28;20025;-49
2022/08/17 08:06:51;;;;;;;5.55;4.65;;;25.10;87.10;;;25.03;50.18;96782.19;5014552;28;20037;-47
2022/08/17 08:09:39;;;;;;;4.78;4.03;;;25.00;88.10;;;25.00;50.58;96785.22;5016704;28;20094;-46
2022/08/17 08:12:32;;;;;;;4.80;3.72;;;24.90;88.00;;;25.00;50.91;96798.69;5031832;28;20501;-45
2022/08/17 08:15:18;;;;;;;4.43;3.90;;;24.90;88.20;;;25.05;50.70;96799.06;5032021;28;20461;-48
2022/08/17 08:17:48;;;;;;;7.45;4.57;;;24.90;88.00;;;25.14;50.58;96798.94;5015114;28;20055;-48
2022/08/17 08:20:14;;;;;;;4.97;4.10;;;25.00;87.60;;;25.16;50.35;96788.00;5032529;28;20122;-47
2022/08/17 08:23:02;;;;;;;7.85;4.53;;;25.10;87.20;;;25.20;50.24;96796.63;5016072;28;20207;-46
2022/08/17 08:25:50;;;;;;;5.25;3.70;;;25.10;86.90;;;25.30;50.03;96802.72;5014897;28;20037;-49
2022/08/17 08:28:29;;;;;;;5.75;4.25;;;25.20;87.00;;;25.33;48.66;96808.66;5034155;28;20049;-50
2022/08/17 08:31:17;;;;;;;6.68;5.00;;;25.30;85.10;;;25.39;49.43;96796.34;5014149;28;20555;-49
2022/08/17 08:34:13;;;;;;;5.95;4.22;;;25.30;86.00;;;25.44;49.67;96798.56;5031142;28;20025;-48
2022/08/17 08:36:54;;;;;;;5.45;4.40;;;25.30;86.10;;;25.50;49.44;96808.69;5031610;28;20328;-46
2022/08/17 08:39:43;;;;;;;6.75;4.43;;;25.40;85.80;;;25.59;49.34;96802.31;5016182;28;20056;-46
2022/08/17 08:42:17;;;;;;;6.60;4.93;;;25.60;85.70;;;25.71;48.71;96816.34;5012557;28;20026;-48
2022/08/17 08:44:50;;;;;;;7.55;5.10;;;25.70;85.80;;;25.72;48.50;96818.88;5031523;28;20025;-46
2022/08/17 08:47:48;;;;;;;5.30;4.18;;;25.70;84.80;;;25.70;48.75;96822.75;5029839;28;20040;-49
2022/08/17 08:50:46;;;;;;;5.57;3.90;;;25.70;84.70;;;25.74;48.86;96826.81;5015869;28;20025;-49
2022/08/17 08:53:31;;;;;;;6.43;4.10;;;25.70;84.80;;;25.65;48.83;96819.72;4987473;28;20033;-45
2022/08/17 08:56:18;;;;;;;6.28;4.15;;;25.70;84.70;;;25.70;48.76;96831.69;5013369;28;20054;-47
2022/08/17 08:59:08;;;;;;;5.28;4.22;;;25.70;84.50;;;25.63;49.29;96829.84;5011922;28;20556;-49
2022/08/17 09:01:58;;;;;;;7.15;4.10;;;25.60;84.60;;;25.55;49.14;96827.09;5015201;28;20079;-48
2022/08/17 09:04:48;;;;;;;7.20;4.72;;;25.60;84.80;;;25.45;48.71;96829.97;5031284;28;20045;-45
2022/08/17 09:07:54;;;;;;;6.55;4.00;;;25.50;84.30;;;25.34;50.17;96825.72;5017796;28;20036;-47
2022/08/17 09:10:33;;;;;;;5.30;3.92;;;25.40;84.10;;;25.34;51.38;96831.09;5034245;28;20471;-49
2022/08/17 09:13:40;;;;;;;5.65;4.00;;;25.40;86.20;;;25.30;54.95;96825.19;5034587;28;20028;-45
2022/08/17 09:16:16;;;;;;;7.13;3.97;;;25.30;88.70;;;25.24;56.43;96823.13;5017095;28;20036;-46
2022/08/17 09:18:56;;;;;;;5.20;4.03;;;25.20;90.40;;;25.15;57.18;96824.91;5020012;28;20572;-46
2022/08/17 09:21:42;;;;;;;5.70;3.90;;;25.10;90.60;;;25.03;58.00;96823.50;5018171;28;20030;-45
2022/08/17 09:24:31;;;;;;;4.50;3.95;;;25.00;91.10;;;24.92;58.84;96819.22;5021505;28;20074;-45
2022/08/17 09:27:12;;;;;;;5.28;3.97;;;24.90;91.30;;;24.83;60.74;96822.06;5033125;28;20874;-47
2022/08/17 09:29:47;;;;;;;5.25;4.03;;;24.80;91.90;;;24.75;62.87;96839.03;5034537;28;20111;-46
2022/08/17 09:32:27;;;;;;;4.57;3.97;;;24.70;92.90;;;24.68;64.66;96852.31;5034733;28;20037;-46
2022/08/17 09:35:01;;;;;;;3.97;3.40;;;24.60;93.50;;;24.56;66.91;96849.00;5017820;28;20029;-49
2022/08/17 09:37:49;;;;;;;5.22;4.15;;;24.60;94.40;;;24.41;70.58;96845.19;5019383;28;20037;-45
2022/08/17 09:40:26;;;;;;;5.38;4.10;;;24.40;95.50;;;24.26;71.19;96850.25;5020175;28;20362;-44
2022/08/17 09:43:18;;;;;;;4.43;3.95;;;24.30;95.80;;;24.15;72.57;96848.66;5034134;28;20041;-46
2022/08/17 09:45:56;;;;;;;4.55;4.15;;;24.20;96.30;;;24.06;75.22;96837.97;5033646;28;20029;-49
2022/08/17 09:49:19;;;;;;;5.82;4.38;;;24.10;97.50;;;23.84;74.04;96836.59;5021348;28;20470;-46
2022/08/17 09:51:53;;;;;;;5.68;4.00;;;23.90;97.00;;;23.73;75.01;96834.94;5020083;28;20079;-48
2022/08/17 09:54:27;;;;;;;5.32;3.95;;;23.70;97.50;;;23.64;74.38;96821.41;5032594;28;20477;-45
2022/08/17 09:57:13;;;;;;;4.30;3.80;;;23.60;97.60;;;23.62;72.81;96828.78;5014963;28;20481;-49
2022/08/17 09:59:56;;;;;;;4.40;4.00;;;23.60;97.10;;;23.55;70.55;96843.00;5032727;28;20468;-45
2022/08/17 10:02:41;;;;;;;6.80;4.07;;;23.60;96.40;;;23.36;73.60;96854.72;5016228;28;20020;-48
2022/08/17 10:05:20;;;;;;;6.90;4.28;;;23.40;97.20;;;23.09;77.39;96856.41;5035584;28;20025;-47
2022/08/17 10:08:18;;;;;;;11.07;4.53;;;23.10;98.70;;;22.80;83.06;96853.81;5017737;28;20067;-45
2022/08/17 10:11:13;;;;;;;4.95;4.30;;;22.80;99.90;;;22.52;84.55;96848.34;5017998;28;20025;-45
2022/08/17 10:13:39;;;;;;;5.78;4.28;;;22.60;99.90;;;22.32;87.39;96852.91;5032236;28;20507;-46
2022/08/17 10:16:19;;;;;;;4.57;3.70;;;22.40;99.90;;;22.16;89.07;96852.63;5034480;28;20021;-49
2022/08/17 10:19:34;;;;;;;4.28;3.75;;;22.30;99.90;;;22.09;92.56;96846.97;5033675;28;20021;-47
2022/08/17 10:27:50;;;;;;;7.30;4.63;;;22.10;99.90;;;22.16;97.96;96869.56;5020153;28;20036;-47
2022/08/17 10:30:19;;;;;;;4.30;3.90;;;22.20;99.90;;;22.16;98.80;96860.66;5019650;28;20025;-47
2022/08/17 10:32:49;;;;;;;5.07;3.88;;;22.20;99.90;;;22.20;98.11;96870.13;5016649;28;20292;-46
2022/08/17 10:35:27;;;;;;;4.30;3.80;;;22.30;99.90;;;22.25;98.16;96868.75;5033698;28;20378;-45
2022/08/17 10:38:11;;;;;;;4.00;3.60;;;22.30;99.90;;;22.30;96.48;96879.91;5033964;28;20025;-49
2022/08/17 10:41:00;;;;;;;7.68;3.60;;;22.40;99.90;;;22.30;96.81;96884.44;5016943;28;20025;-45
2022/08/17 10:43:43;;;;;;;4.65;3.72;;;22.40;99.90;;;22.34;96.88;96893.06;5015345;28;20024;-47
2022/08/17 10:46:38;;;;;;;6.40;3.97;;;22.40;99.90;;;22.40;97.52;96889.81;5033265;28;20550;-45
2022/08/17 10:49:25;;;;;;;5.40;3.35;;;22.40;99.90;;;22.44;98.45;96899.28;5016585;28;20037;-46
2022/08/17 10:51:55;;;;;;;5.85;4.10;;;22.50;99.90;;;22.40;99.50;96903.25;5033181;28;20033;-48
2022/08/17 10:54:23;;;;;;;4.00;3.60;;;22.40;99.90;;;22.29;100.00;96912.31;5033878;28;20025;-45
2022/08/17 10:56:52;;;;;;;4.68;4.00;;;22.30;99.90;;;22.15;98.94;96915.38;5034185;28;20029;-47
2022/08/17 10:59:33;;;;;;;6.28;4.00;;;22.30;99.90;;;22.02;98.04;96913.81;5016412;28;20040;-46
2022/08/17 11:02:18;;;;;;;6.15;4.20;;;22.10;99.90;;;21.86;98.77;96919.72;5031096;28;20051;-45
2022/08/17 11:05:25;;;;;;;10.23;5.10;;;21.90;99.90;;;21.52;100.00;96914.72;5033291;28;20035;-46
2022/08/17 11:08:18;;;;;;;7.80;5.13;;;21.70;99.90;;;21.04;100.00;96907.28;5030776;28;20029;-46
2022/08/17 11:11:11;;;;;;;8.88;5.60;;;21.30;99.90;;;20.77;100.00;96915.91;5033636;28;20987;-47
2022/08/17 11:14:15;;;;;;;8.00;5.15;;;21.00;99.90;;;20.58;100.00;96914.78;5016479;28;20477;-45
2022/08/17 11:16:59;;;;;;;8.43;4.93;;;20.80;99.90;;;20.40;100.00;96929.69;5029107;28;20040;-48